createdAt,value
2019-03-27T00:00:09.420Z,92.80
2019-03-27T00:02:37.901Z,93.00
2019-03-27T00:05:07.481Z,93.00
2019-03-27T00:07:35.945Z,92.90
2019-03-27T00:10:07.389Z,92.90
2019-03-27T00:12:36.751Z,92.90
2019-03-27T00:15:13.491Z,92.80
2019-03-27T00:17:39.172Z,93.00
2019-03-27T00:20:09.779Z,92.90
2019-03-27T00:22:38.336Z,92.90
2019-03-27T00:25:09.246Z,93.30
2019-03-27T00:27:37.786Z,92.90
2019-03-27T00:30:10.358Z,92.80
2019-03-27T00:32:38.822Z,93.20
2019-03-27T00:35:07.841Z,93.40
2019-03-27T00:37:36.308Z,93.50
2019-03-27T00:40:06.404Z,93.40
2019-03-27T00:42:35.447Z,93.30
2019-03-27T00:45:06.509Z,93.40
2019-03-27T00:47:34.971Z,93.40
2019-03-27T00:50:05.770Z,93.40
2019-03-27T00:52:34.812Z,93.30
2019-03-27T00:55:04.220Z,93.40
2019-03-27T00:57:33.272Z,93.50
2019-03-27T01:00:02.334Z,93.40
2019-03-27T01:02:30.794Z,93.40
2019-03-27T01:04:59.286Z,93.40
2019-03-27T01:07:27.742Z,93.60
2019-03-27T01:09:56.212Z,93.60
2019-03-27T01:12:24.683Z,93.60
2019-03-27T01:14:53.158Z,93.60
2019-03-27T01:17:22.208Z,93.60
2019-03-27T01:19:51.281Z,93.80
2019-03-27T01:22:20.333Z,93.80
2019-03-27T01:24:48.802Z,93.80
2019-03-27T01:27:17.266Z,93.90
2019-03-27T01:29:45.748Z,93.70
2019-03-27T01:32:14.236Z,93.80
2019-03-27T01:34:42.694Z,93.80
2019-03-27T01:37:11.759Z,93.80
2019-03-27T01:39:40.226Z,94.00
2019-03-27T01:42:09.255Z,94.00
2019-03-27T01:44:38.210Z,94.10
2019-03-27T01:47:06.666Z,94.10
2019-03-27T01:49:35.765Z,93.90
2019-03-27T01:52:04.226Z,93.80
2019-03-27T01:54:33.271Z,93.90
2019-03-27T01:57:02.335Z,94.00
2019-03-27T01:59:31.376Z,93.80
2019-03-27T02:02:00.527Z,93.90
2019-03-27T02:04:29.613Z,93.90
2019-03-27T02:06:58.655Z,93.90
2019-03-27T02:09:27.683Z,93.90
2019-03-27T02:11:56.169Z,93.90
2019-03-27T02:14:25.215Z,93.80
2019-03-27T02:16:53.695Z,93.80
2019-03-27T02:19:22.757Z,93.90
2019-03-27T02:21:51.809Z,94.00
2019-03-27T02:24:20.857Z,94.20
2019-03-27T02:26:49.315Z,94.30
2019-03-27T02:29:17.793Z,94.20
2019-03-27T02:31:46.853Z,94.10
2019-03-27T02:34:15.908Z,94.00
2019-03-27T02:36:44.379Z,94.00
2019-03-27T02:39:12.860Z,93.80
2019-03-27T02:41:41.315Z,93.90
2019-03-27T02:44:10.379Z,93.90
2019-03-27T02:46:38.838Z,93.90
2019-03-27T02:49:07.319Z,93.90
2019-03-27T02:51:35.794Z,93.80
2019-03-27T02:54:04.900Z,93.50
2019-03-27T02:56:33.586Z,93.80
2019-03-27T02:59:02.439Z,93.70
2019-03-27T03:01:31.490Z,93.60
2019-03-27T03:03:59.971Z,93.60
2019-03-27T03:06:28.428Z,93.50
2019-03-27T03:08:57.484Z,93.50
2019-03-27T03:11:25.954Z,93.50
2019-03-27T03:13:54.432Z,93.40
2019-03-27T03:16:22.895Z,93.40
2019-03-27T03:18:51.375Z,93.30
2019-03-27T03:21:19.832Z,93.20
2019-03-27T03:23:48.896Z,93.20
2019-03-27T03:26:17.359Z,93.00
2019-03-27T03:28:46.535Z,93.10
2019-03-27T03:31:15.162Z,93.00
2019-03-27T03:33:43.714Z,93.30
2019-03-27T03:36:12.856Z,93.10
2019-03-27T03:38:41.509Z,93.00
2019-03-27T03:41:10.549Z,92.80
2019-03-27T03:43:39.023Z,92.80
2019-03-27T03:46:08.078Z,92.80
2019-03-27T03:48:36.566Z,92.90
2019-03-27T03:51:06.481Z,92.80
2019-03-27T03:53:36.299Z,93.20
2019-03-27T03:56:05.665Z,92.80
2019-03-27T03:58:36.772Z,92.90
2019-03-27T04:01:06.974Z,92.80
2019-03-27T04:03:36.468Z,92.90
2019-03-27T04:06:05.066Z,92.90
2019-03-27T04:08:33.560Z,92.80
2019-03-27T04:11:02.151Z,93.10
2019-03-27T04:13:31.167Z,93.20
2019-03-27T04:16:00.376Z,93.00
2019-03-27T04:18:28.851Z,93.00
2019-03-27T04:20:57.320Z,92.90
2019-03-27T04:23:25.802Z,93.00
2019-03-27T04:26:08.778Z,93.00
2019-03-27T04:28:25.487Z,93.20
2019-03-27T04:30:54.594Z,93.20
2019-03-27T04:33:23.136Z,93.10
2019-03-27T04:35:51.624Z,93.20
2019-03-27T04:38:20.665Z,93.10
2019-03-27T04:40:49.720Z,93.10
2019-03-27T04:43:18.200Z,93.10
2019-03-27T04:45:47.268Z,92.90
2019-03-27T04:48:16.312Z,93.10
2019-03-27T04:50:45.373Z,93.00
2019-03-27T04:53:13.847Z,92.90
2019-03-27T04:55:42.911Z,92.90
2019-03-27T04:58:11.370Z,93.00
2019-03-27T05:00:40.436Z,93.00
2019-03-27T05:03:09.483Z,93.00
2019-03-27T05:05:37.945Z,93.00
2019-03-27T05:08:06.986Z,92.80
2019-03-27T05:10:35.456Z,92.90
2019-03-27T05:13:04.571Z,92.60
2019-03-27T05:15:33.624Z,92.80
2019-03-27T05:18:02.654Z,92.70
2019-03-27T05:20:31.227Z,92.50
2019-03-27T05:23:00.320Z,92.60
2019-03-27T05:25:29.373Z,92.60
2019-03-27T05:27:58.421Z,92.40
2019-03-27T05:30:29.112Z,92.30
2019-03-27T05:32:58.447Z,92.30
2019-03-27T05:35:27.710Z,92.20
2019-03-27T05:37:57.013Z,92.20
2019-03-27T05:40:25.476Z,92.10
2019-03-27T05:43:00.603Z,92.00
2019-03-27T05:45:25.393Z,91.90
2019-03-27T05:47:59.326Z,91.80
2019-03-27T05:50:24.639Z,91.80
2019-03-27T05:52:53.929Z,92.00
2019-03-27T05:55:22.415Z,91.80
2019-03-27T05:57:51.477Z,92.00
2019-03-27T06:00:20.546Z,92.00
2019-03-27T06:02:49.615Z,92.00
2019-03-27T06:05:18.754Z,92.00
2019-03-27T06:07:47.875Z,91.90
2019-03-27T06:10:16.925Z,91.90
2019-03-27T06:12:45.405Z,91.80
2019-03-27T06:15:14.615Z,91.90
2019-03-27T06:17:43.681Z,91.90
2019-03-27T06:20:13.094Z,91.70
2019-03-27T06:22:42.169Z,91.50
2019-03-27T06:25:11.211Z,91.40
2019-03-27T06:27:40.275Z,91.30
2019-03-27T06:30:09.749Z,91.30
2019-03-27T06:32:38.822Z,90.80
2019-03-27T06:35:08.031Z,90.70
2019-03-27T06:37:37.168Z,90.90
2019-03-27T06:40:07.278Z,91.00
2019-03-27T06:42:36.324Z,90.90
2019-03-27T06:45:06.614Z,90.70
2019-03-27T06:47:35.711Z,90.70
2019-03-27T06:50:06.642Z,90.50
2019-03-27T06:52:35.774Z,90.20
2019-03-27T06:55:07.056Z,90.00
2019-03-27T06:57:36.122Z,90.10
2019-03-27T07:00:08.270Z,89.90
2019-03-27T07:02:37.323Z,89.90
2019-03-27T07:05:07.128Z,89.90
2019-03-27T07:07:36.176Z,89.70
2019-03-27T07:10:08.635Z,87.80
2019-03-27T07:12:37.699Z,88.30
2019-03-27T07:15:07.494Z,88.70
2019-03-27T07:17:36.635Z,88.90
2019-03-27T07:20:07.283Z,88.40
2019-03-27T07:22:36.347Z,87.90
2019-03-27T07:25:07.255Z,88.20
2019-03-27T07:27:36.354Z,88.20
2019-03-27T07:30:06.947Z,87.90
2019-03-27T07:32:36.007Z,87.40
2019-03-27T07:35:05.823Z,87.00
2019-03-27T07:37:34.889Z,87.40
2019-03-27T07:40:06.183Z,87.50
2019-03-27T07:42:35.219Z,87.80
2019-03-27T07:45:07.069Z,87.70
2019-03-27T07:47:36.405Z,87.50
2019-03-27T07:50:06.999Z,87.40
2019-03-27T07:52:36.062Z,87.00
2019-03-27T07:55:18.777Z,86.80
2019-03-27T07:57:36.646Z,86.20
2019-03-27T08:00:08.817Z,86.50
2019-03-27T08:02:37.879Z,86.30
2019-03-27T08:05:07.059Z,86.40
2019-03-27T08:07:36.115Z,85.60
2019-03-27T08:10:06.893Z,85.90
2019-03-27T08:12:36.007Z,85.20
2019-03-27T08:15:06.945Z,85.20
2019-03-27T08:17:36.455Z,85.00
2019-03-27T08:20:07.235Z,85.00
2019-03-27T08:22:36.293Z,84.90
2019-03-27T08:25:07.542Z,84.50
2019-03-27T08:27:36.606Z,84.60
2019-03-27T08:30:11.731Z,84.60
2019-03-27T08:32:40.860Z,84.40
2019-03-27T08:35:10.840Z,83.90
2019-03-27T08:37:47.374Z,83.00
2019-03-27T08:40:16.756Z,82.90
2019-03-27T08:42:45.816Z,81.90
2019-03-27T08:45:15.012Z,81.50
2019-03-27T08:47:44.262Z,81.00
2019-03-27T08:50:13.651Z,80.90
2019-03-27T08:52:42.784Z,80.00
2019-03-27T08:55:13.779Z,79.40
2019-03-27T08:57:43.168Z,79.40
2019-03-27T09:00:14.626Z,78.80
2019-03-27T09:02:43.764Z,78.50
2019-03-27T09:05:13.166Z,77.20
2019-03-27T09:07:42.237Z,77.00
2019-03-27T09:10:12.121Z,77.50
2019-03-27T09:12:41.254Z,77.20
2019-03-27T09:15:11.739Z,77.20
2019-03-27T09:17:40.811Z,77.30
2019-03-27T09:20:10.305Z,77.50
2019-03-27T09:22:39.364Z,76.90
2019-03-27T09:25:08.867Z,77.10
2019-03-27T09:27:37.991Z,76.10
2019-03-27T09:30:10.145Z,75.90
2019-03-27T09:32:39.218Z,75.10
2019-03-27T09:35:08.553Z,74.80
2019-03-27T09:37:37.629Z,74.80
2019-03-27T09:40:07.721Z,74.60
2019-03-27T09:42:36.950Z,74.60
2019-03-27T09:45:08.197Z,73.80
2019-03-27T09:47:37.537Z,72.70
2019-03-27T09:50:07.745Z,72.50
2019-03-27T09:52:36.815Z,71.80
2019-03-27T09:55:06.127Z,71.10
2019-03-27T09:57:35.181Z,71.30
2019-03-27T10:00:07.549Z,71.00
2019-03-27T10:02:36.609Z,71.00
2019-03-27T10:05:09.566Z,68.50
2019-03-27T10:07:38.631Z,69.30
2019-03-27T10:10:08.032Z,69.20
2019-03-27T10:12:37.105Z,69.80
2019-03-27T10:15:09.497Z,70.30
2019-03-27T10:17:38.560Z,70.70
2019-03-27T10:20:07.961Z,71.10
2019-03-27T10:22:37.031Z,70.50
2019-03-27T10:25:07.936Z,69.80
2019-03-27T10:27:37.058Z,69.40
2019-03-27T10:30:07.373Z,68.20
2019-03-27T10:32:36.558Z,68.40
2019-03-27T10:35:06.457Z,68.20
2019-03-27T10:37:35.506Z,67.90
2019-03-27T10:40:06.868Z,68.70
2019-03-27T10:42:36.122Z,68.10
2019-03-27T10:45:07.089Z,67.20
2019-03-27T10:47:36.168Z,67.20
2019-03-27T10:50:17.355Z,67.30
2019-03-27T10:52:39.452Z,65.70
2019-03-27T10:55:08.756Z,66.20
2019-03-27T10:57:37.888Z,64.90
2019-03-27T11:00:10.628Z,66.20
2019-03-27T11:02:39.758Z,65.90
2019-03-27T11:05:09.647Z,66.30
2019-03-27T11:07:38.817Z,66.40
2019-03-27T11:10:09.400Z,66.20
2019-03-27T11:12:38.491Z,66.40
2019-03-27T11:15:08.541Z,66.50
2019-03-27T11:17:37.686Z,66.20
2019-03-27T11:20:08.278Z,65.50
2019-03-27T11:22:37.343Z,65.10
2019-03-27T11:25:07.125Z,65.20
2019-03-27T11:27:36.177Z,66.00
2019-03-27T11:30:09.053Z,66.50
2019-03-27T11:32:38.106Z,66.20
2019-03-27T11:35:07.597Z,65.90
2019-03-27T11:37:36.662Z,65.70
2019-03-27T11:40:06.453Z,65.50
2019-03-27T11:42:35.521Z,65.20
2019-03-27T11:45:07.033Z,65.50
2019-03-27T11:47:36.162Z,65.70
2019-03-27T11:50:10.145Z,64.70
2019-03-27T11:52:39.197Z,64.90
2019-03-27T11:55:08.699Z,64.20
2019-03-27T11:57:37.836Z,64.80
2019-03-27T12:00:10.035Z,65.30
2019-03-27T12:02:39.112Z,65.30
2019-03-27T12:05:08.813Z,65.70
2019-03-27T12:07:37.885Z,65.30
2019-03-27T12:10:08.066Z,65.20
2019-03-27T12:12:37.137Z,64.60
2019-03-27T12:15:08.317Z,65.30
2019-03-27T12:17:37.403Z,64.90
2019-03-27T12:20:07.604Z,65.50
2019-03-27T12:22:36.640Z,66.00
2019-03-27T12:25:06.826Z,65.40
2019-03-27T12:27:35.869Z,65.50
2019-03-27T12:30:07.379Z,65.70
2019-03-27T12:32:36.426Z,65.70
2019-03-27T12:35:06.531Z,65.30
2019-03-27T12:37:35.563Z,64.50
2019-03-27T12:40:11.360Z,64.50
2019-03-27T12:42:37.244Z,64.50
2019-03-27T12:45:07.358Z,64.40
2019-03-27T12:47:36.419Z,64.20
2019-03-27T12:50:07.475Z,64.00
2019-03-27T12:52:36.532Z,63.40
2019-03-27T12:55:06.421Z,63.00
2019-03-27T12:57:35.465Z,62.70
2019-03-27T13:00:07.375Z,62.40
2019-03-27T13:02:36.422Z,61.80
2019-03-27T13:05:07.133Z,61.10
2019-03-27T13:07:49.124Z,61.40
2019-03-27T13:10:07.299Z,61.40
2019-03-27T13:12:36.379Z,61.30
2019-03-27T13:15:08.911Z,61.10
2019-03-27T13:17:38.013Z,61.10
2019-03-27T13:20:07.895Z,61.80
2019-03-27T13:22:38.365Z,60.30
2019-03-27T13:25:08.718Z,61.00
2019-03-27T13:27:37.933Z,61.40
2019-03-27T13:30:08.812Z,60.50
2019-03-27T13:32:37.925Z,60.30
2019-03-27T13:35:07.925Z,60.20
2019-03-27T13:37:37.002Z,61.00
2019-03-27T13:40:10.615Z,61.70
2019-03-27T13:42:39.769Z,61.70
2019-03-27T13:45:09.344Z,62.30
2019-03-27T13:47:38.395Z,63.00
2019-03-27T13:50:12.898Z,63.00
2019-03-27T13:52:41.372Z,63.30
2019-03-27T13:55:10.656Z,63.40
2019-03-27T13:57:39.701Z,63.10
2019-03-27T14:00:11.361Z,61.80
2019-03-27T14:02:40.423Z,61.00
2019-03-27T14:05:09.683Z,60.20
2019-03-27T14:07:38.733Z,60.90
2019-03-27T14:10:08.608Z,60.80
2019-03-27T14:12:37.766Z,60.20
2019-03-27T14:15:08.556Z,60.90
2019-03-27T14:17:37.859Z,60.90
2019-03-27T14:20:08.446Z,60.70
2019-03-27T14:22:37.546Z,60.40
2019-03-27T14:25:08.237Z,60.70
2019-03-27T14:27:37.289Z,60.90
2019-03-27T14:30:09.128Z,61.40
2019-03-27T14:32:38.326Z,62.10
2019-03-27T14:35:07.902Z,62.00
2019-03-27T14:37:36.950Z,62.20
2019-03-27T14:40:07.627Z,62.70
2019-03-27T14:42:36.740Z,63.00
2019-03-27T14:45:08.449Z,62.70
2019-03-27T14:47:37.744Z,62.90
2019-03-27T14:50:08.218Z,62.90
2019-03-27T14:52:37.280Z,62.40
2019-03-27T14:55:07.552Z,61.80
2019-03-27T14:57:37.588Z,61.60
2019-03-27T15:00:09.606Z,61.00
2019-03-27T15:02:39.307Z,61.00
2019-03-27T15:05:09.389Z,60.70
2019-03-27T15:07:38.445Z,60.80
2019-03-27T15:10:09.010Z,61.50
2019-03-27T15:12:38.058Z,61.40
2019-03-27T15:15:10.240Z,60.80
2019-03-27T15:17:39.343Z,61.00
2019-03-27T15:20:09.222Z,60.80
2019-03-27T15:22:38.383Z,61.20
2019-03-27T15:25:08.365Z,61.50
2019-03-27T15:27:37.415Z,61.90
2019-03-27T15:30:08.775Z,62.40
2019-03-27T15:32:37.955Z,62.10
2019-03-27T15:35:08.051Z,62.80
2019-03-27T15:37:37.134Z,63.70
2019-03-27T15:40:07.123Z,63.30
2019-03-27T15:42:36.289Z,63.60
2019-03-27T15:45:10.027Z,63.70
2019-03-27T15:47:39.135Z,63.70
2019-03-27T15:50:08.546Z,63.90
2019-03-27T15:52:37.573Z,64.00
2019-03-27T15:55:06.807Z,63.90
2019-03-27T15:57:35.832Z,63.70
2019-03-27T16:00:06.455Z,63.50
2019-03-27T16:02:35.465Z,63.50
2019-03-27T16:05:08.703Z,63.10
2019-03-27T16:07:37.760Z,63.30
2019-03-27T16:10:07.106Z,63.60
2019-03-27T16:12:36.598Z,63.70
2019-03-27T16:15:07.482Z,63.90
2019-03-27T16:17:36.657Z,64.00
2019-03-27T16:20:07.270Z,63.40
2019-03-27T16:22:49.867Z,64.00
2019-03-27T16:25:08.248Z,63.60
2019-03-27T16:27:37.308Z,63.20
2019-03-27T16:30:08.323Z,63.40
2019-03-27T16:32:37.426Z,63.30
2019-03-27T16:35:08.211Z,63.40
2019-03-27T16:37:37.266Z,63.30
2019-03-27T16:40:07.255Z,63.30
2019-03-27T16:42:36.281Z,63.00
2019-03-27T16:45:10.104Z,63.20
2019-03-27T16:47:39.214Z,63.30
2019-03-27T16:50:09.429Z,63.60
2019-03-27T16:52:38.458Z,63.50
2019-03-27T16:55:09.254Z,63.70
2019-03-27T16:57:38.284Z,63.70
2019-03-27T17:00:08.183Z,63.80
2019-03-27T17:02:37.274Z,63.50
2019-03-27T17:05:07.296Z,64.80
2019-03-27T17:07:36.401Z,64.30
2019-03-27T17:10:09.368Z,64.10
2019-03-27T17:12:38.424Z,64.40
2019-03-27T17:15:07.642Z,64.60
2019-03-27T17:17:36.716Z,64.70
2019-03-27T17:20:08.865Z,64.80
2019-03-27T17:22:37.926Z,64.80
2019-03-27T17:25:08.582Z,65.10
2019-03-27T17:27:37.793Z,65.60
2019-03-27T17:30:09.092Z,65.80
2019-03-27T17:32:38.163Z,66.10
2019-03-27T17:35:07.477Z,66.50
2019-03-27T17:37:40.261Z,66.90
2019-03-27T17:40:09.764Z,67.20
2019-03-27T17:42:38.841Z,67.90
2019-03-27T17:45:08.397Z,69.10
2019-03-27T17:47:37.944Z,68.30
2019-03-27T17:50:07.931Z,68.90
2019-03-27T17:52:38.384Z,69.00
2019-03-27T17:55:09.893Z,69.20
2019-03-27T17:57:38.974Z,69.20
2019-03-27T18:00:15.381Z,69.00
2019-03-27T18:02:50.549Z,69.00
2019-03-27T18:05:19.786Z,69.10
2019-03-27T18:07:48.860Z,69.00
2019-03-27T18:10:17.984Z,69.30
2019-03-27T18:12:47.073Z,69.30
2019-03-27T18:15:16.134Z,69.20
2019-03-27T18:17:45.450Z,69.50
2019-03-27T18:20:14.684Z,69.70
2019-03-27T18:22:43.826Z,69.70
2019-03-27T18:25:12.956Z,69.80
2019-03-27T18:27:42.086Z,70.00
2019-03-27T18:30:11.510Z,70.50
2019-03-27T18:32:40.598Z,70.90
2019-03-27T18:35:09.885Z,70.80
2019-03-27T18:37:38.955Z,71.30
2019-03-27T18:40:08.361Z,71.60
2019-03-27T18:42:37.474Z,71.60
2019-03-27T18:45:10.839Z,72.00
2019-03-27T18:47:39.898Z,72.10
2019-03-27T18:50:09.740Z,72.60
2019-03-27T18:52:38.838Z,72.60
2019-03-27T18:55:08.604Z,73.10
2019-03-27T18:57:37.737Z,73.80
2019-03-27T19:00:07.979Z,73.80
2019-03-27T19:02:37.114Z,74.10
2019-03-27T19:05:07.693Z,75.10
2019-03-27T19:07:36.754Z,75.10
2019-03-27T19:10:06.661Z,76.00
2019-03-27T19:12:35.751Z,76.00
2019-03-27T19:15:08.183Z,77.00
2019-03-27T19:17:37.273Z,78.10
2019-03-27T19:20:09.488Z,78.80
2019-03-27T19:22:38.561Z,80.10
2019-03-27T19:25:08.143Z,80.80
2019-03-27T19:27:37.193Z,81.20
2019-03-27T19:30:07.980Z,81.80
2019-03-27T19:32:37.208Z,81.40
2019-03-27T19:35:06.549Z,81.30
2019-03-27T19:37:35.597Z,82.90
2019-03-27T19:40:05.793Z,83.90
2019-03-27T19:42:34.936Z,83.50
2019-03-27T19:45:06.013Z,83.20
2019-03-27T19:47:35.226Z,83.00
2019-03-27T19:50:08.709Z,83.40
2019-03-27T19:52:37.769Z,83.90
2019-03-27T19:55:07.151Z,82.50
2019-03-27T19:57:36.177Z,82.60
2019-03-27T20:00:09.105Z,82.30
2019-03-27T20:02:38.317Z,81.90
2019-03-27T20:05:08.032Z,81.70
2019-03-27T20:07:37.323Z,81.40
2019-03-27T20:10:08.636Z,81.20
2019-03-27T20:12:37.736Z,81.20
2019-03-27T20:15:12.449Z,81.00
2019-03-27T20:17:39.095Z,81.30
2019-03-27T20:20:10.359Z,81.20
2019-03-27T20:22:39.416Z,81.20
2019-03-27T20:25:09.028Z,81.80
2019-03-27T20:27:38.154Z,81.50
2019-03-27T20:30:13.022Z,81.50
2019-03-27T20:32:42.430Z,81.40
2019-03-27T20:35:11.614Z,81.50
2019-03-27T20:37:40.663Z,81.20
2019-03-27T20:40:10.578Z,81.40
2019-03-27T20:42:39.629Z,81.40
2019-03-27T20:45:09.128Z,81.30
2019-03-27T20:47:38.177Z,81.20
2019-03-27T20:50:07.870Z,81.20
2019-03-27T20:52:36.920Z,81.30
2019-03-27T20:55:06.732Z,81.20
2019-03-27T20:57:35.772Z,81.20
2019-03-27T21:00:06.836Z,81.20
2019-03-27T21:02:35.865Z,81.40
2019-03-27T21:05:06.654Z,81.30
2019-03-27T21:07:35.750Z,81.10
2019-03-27T21:10:07.454Z,81.10
2019-03-27T21:12:36.516Z,81.10
2019-03-27T21:15:06.960Z,81.10
2019-03-27T21:17:36.006Z,81.00
2019-03-27T21:20:06.521Z,81.20
2019-03-27T21:22:35.640Z,81.00
2019-03-27T21:25:09.179Z,80.90
2019-03-27T21:27:36.985Z,81.00
2019-03-27T21:30:08.762Z,81.10
2019-03-27T21:32:37.799Z,80.90
2019-03-27T21:35:07.621Z,80.70
2019-03-27T21:37:36.677Z,81.00
2019-03-27T21:40:07.533Z,80.90
2019-03-27T21:42:36.594Z,81.50
2019-03-27T21:45:09.561Z,80.90
2019-03-27T21:47:38.648Z,81.70
2019-03-27T21:50:09.093Z,80.90
2019-03-27T21:52:38.174Z,80.90
2019-03-27T21:55:21.509Z,80.80
2019-03-27T21:57:38.437Z,80.80
2019-03-27T22:00:08.301Z,81.20
2019-03-27T22:02:37.361Z,81.00
2019-03-27T22:05:07.249Z,81.10
2019-03-27T22:07:36.315Z,80.50
2019-03-27T22:10:07.269Z,81.00
2019-03-27T22:12:38.217Z,81.00
2019-03-27T22:15:08.509Z,81.00
2019-03-27T22:17:37.573Z,81.30
2019-03-27T22:20:07.259Z,81.10
2019-03-27T22:22:36.335Z,81.10
2019-03-27T22:25:07.349Z,81.20
2019-03-27T22:27:36.409Z,81.60
2019-03-27T22:30:07.474Z,81.60
2019-03-27T22:32:36.509Z,81.60
2019-03-27T22:35:07.017Z,81.70
2019-03-27T22:37:36.084Z,81.70
2019-03-27T22:40:06.888Z,81.60
2019-03-27T22:42:35.949Z,81.60
2019-03-27T22:45:06.533Z,81.80
2019-03-27T22:47:35.757Z,81.80
2019-03-27T22:50:08.318Z,81.80
2019-03-27T22:52:37.506Z,82.10
2019-03-27T22:55:08.206Z,82.90
2019-03-27T22:57:37.266Z,82.90
2019-03-27T23:00:10.636Z,83.60
2019-03-27T23:02:39.786Z,82.90
2019-03-27T23:05:08.980Z,82.90
2019-03-27T23:07:38.055Z,82.80
2019-03-27T23:10:07.441Z,83.00
2019-03-27T23:12:36.490Z,83.10
2019-03-27T23:15:09.838Z,83.10
2019-03-27T23:17:38.932Z,83.10
2019-03-27T23:20:09.210Z,83.20
2019-03-27T23:22:38.333Z,83.20
2019-03-27T23:25:07.581Z,83.20
2019-03-27T23:27:36.688Z,83.50
2019-03-27T23:30:07.775Z,83.30
2019-03-27T23:32:36.989Z,83.40
2019-03-27T23:35:08.688Z,83.40
2019-03-27T23:37:37.829Z,83.50
2019-03-27T23:40:07.424Z,83.40
2019-03-27T23:42:36.468Z,83.40
2019-03-27T23:45:07.065Z,83.40
2019-03-27T23:47:36.196Z,83.80
2019-03-27T23:50:09.023Z,83.50
2019-03-27T23:52:38.062Z,83.90
2019-03-27T23:55:07.637Z,84.20
2019-03-27T23:57:37.307Z,84.90
